KOCW

Details ICAO KOCW
Name WARREN FLD
Region United States
Timezone America/New_York (UTC-4.0)
Plans Departing 5
Arriving 7
Stats Elevation 38 ft / 12 m (AMSL)
Location 35.570236° -77.049808°
Runways 3
Magnetic Variation 10.185° W
Sunrise 2018-05-21 10:00:38 UTC / 2018-05-21 06:00:38 Local
Sunset 2018-05-22 00:11:50 UTC / 2018-05-21 20:11:50 Local
Advertisement - Login to hide

Runways

ID Width Length Bearing (true) Bearing (mag) Surface Threshold Offset Overrun Length
05 100 ft / 30 m 5,004 ft / 1,525 m 36.67° 46.86° Asphalt 0 ft / 0 m 0 ft / 0 m
11 150 ft / 46 m 3,992 ft / 1,217 m 92.43° 102.62° Asphalt 0 ft / 0 m 0 ft / 0 m
17 150 ft / 46 m 5,008 ft / 1,527 m 155.30° 165.49° Asphalt 501 ft / 153 m 0 ft / 0 m
23 100 ft / 30 m 5,004 ft / 1,525 m 216.68° 226.87° Asphalt 199 ft / 61 m 0 ft / 0 m
29 150 ft / 46 m 3,992 ft / 1,217 m 272.43° 282.62° Asphalt 0 ft / 0 m 0 ft / 0 m
35 150 ft / 46 m 5,008 ft / 1,527 m 335.30° 345.49° Asphalt 0 ft / 0 m 0 ft / 0 m

Map

Weather


0- 5 10 15 20 25 30 35+ Temperature / ° C

Clouds and Precipitation
Forecast for 2018-05-21 06:00 UTC. Updated 2 hours ago

Ground ~20,000 ft ~40,000 ft Winds

METAR

KOCW 210735Z AUTO 00000KT 10SM CLR 22/21 A3011 RMK AO2 T02150208

TAF

Not found

Frequencies

Recorded 120.17 MHz AWOS 3
Unicom 122.70 MHz CTAF/UNICOM
Warning: Do not use this data for real-world aviation or navigation. No guarantee of current accuracy is given.